Time;durP1;ratioP1;P1;durP2;ratioP2;P2;SDS_P1;SDS_P2;PMS_P1;PMS_P2;Temp;Humidity;BMP_temperature;BMP_pressure;BME280_temperature;BME280_humidity;BME280_pressure;Samples;Min_cycle;Max_cycle;Signal;HPM_P1;HPM_P2
2023/11/15 00:00:00;;;;;;;16.90;8.97;;;10.80;49.20;;;;;;4915966;29;20440;-84
2023/11/15 00:02:25;;;;;;;20.83;9.20;;;10.80;46.70;;;;;;4919164;29;20446;-84
2023/11/15 00:04:51;;;;;;;16.20;8.73;;;10.90;46.20;;;;;;4920196;29;20212;-83
2023/11/15 00:07:16;;;;;;;19.97;8.60;;;10.90;45.20;;;;;;4919156;29;20193;-84
2023/11/15 00:09:42;;;;;;;17.60;7.50;;;10.90;40.90;;;;;;4919452;29;20228;-85
2023/11/15 00:12:07;;;;;;;16.93;8.70;;;10.90;37.30;;;;;;4916161;29;20188;-84
2023/11/15 00:14:33;;;;;;;19.93;7.90;;;10.90;34.20;;;;;;4919395;29;20198;-83
2023/11/15 00:16:58;;;;;;;23.77;8.60;;;10.90;31.70;;;;;;4913466;29;20221;-83
2023/11/15 00:19:24;;;;;;;19.90;7.90;;;10.90;31.30;;;;;;4911976;29;20752;-84
2023/11/15 00:21:50;;;;;;;15.90;7.00;;;10.80;30.90;;;;;;4918439;29;20254;-84
2023/11/15 00:24:15;;;;;;;13.50;6.93;;;10.80;29.40;;;;;;4917931;29;20758;-85
2023/11/15 00:26:41;;;;;;;13.57;7.03;;;10.80;28.30;;;;;;4917326;29;20657;-84
2023/11/15 00:29:07;;;;;;;17.47;6.87;;;10.70;28.60;;;;;;4919335;29;20463;-84
2023/11/15 00:31:33;;;;;;;17.80;7.07;;;10.70;31.80;;;;;;4914717;29;20183;-84
2023/11/15 00:33:58;;;;;;;16.37;7.00;;;10.70;34.30;;;;;;4907576;29;20461;-84
2023/11/15 00:36:24;;;;;;;13.70;6.87;;;10.70;36.50;;;;;;4914087;29;20220;-84
2023/11/15 00:38:49;;;;;;;13.33;6.47;;;10.80;39.70;;;;;;4912286;29;20215;-84
2023/11/15 00:41:15;;;;;;;14.37;5.77;;;10.80;40.80;;;;;;4920468;29;20213;-85
2023/11/15 00:43:42;;;;;;;16.70;6.90;;;10.80;41.00;;;;;;4920508;29;20273;-84
2023/11/15 00:46:12;;;;;;;13.83;6.50;;;10.90;39.20;;;;;;4922567;29;20450;-84
2023/11/15 00:48:39;;;;;;;20.20;7.30;;;10.90;39.50;;;;;;4920426;29;20517;-85
2023/11/15 00:51:06;;;;;;;14.43;6.40;;;10.90;35.10;;;;;;4922747;29;20443;-85
2023/11/15 00:53:32;;;;;;;18.63;6.60;;;11.00;33.60;;;;;;4923448;29;20482;-85
2023/11/15 00:55:58;;;;;;;17.30;6.20;;;11.00;33.60;;;;;;4923903;29;20982;-85
2023/11/15 00:58:29;;;;;;;15.73;6.80;;;11.00;28.60;;;;;;4923534;29;20486;-85
2023/11/15 01:00:59;;;;;;;14.77;6.60;;;11.00;27.00;;;;;;4917573;29;20626;-85
2023/11/15 01:03:29;;;;;;;18.17;5.90;;;11.00;26.70;;;;;;4918024;29;20466;-85
2023/11/15 01:05:56;;;;;;;12.70;5.77;;;11.00;24.70;;;;;;4912902;29;20435;-85
2023/11/15 01:08:25;;;;;;;11.93;6.33;;;11.10;23.80;;;;;;4912590;29;20474;-84
2023/11/15 01:10:52;;;;;;;15.37;5.80;;;11.10;23.80;;;;;;4918024;29;20445;-85
2023/11/15 01:13:18;;;;;;;15.80;6.80;;;11.10;20.40;;;;;;4919309;29;20434;-85
2023/11/15 01:15:44;;;;;;;12.03;5.47;;;11.10;17.60;;;;;;4917695;29;20443;-84
2023/11/15 01:18:09;;;;;;;13.27;6.00;;;11.10;16.20;;;;;;4917523;29;20470;-85
2023/11/15 01:20:35;;;;;;;22.23;7.10;;;11.10;16.10;;;;;;4913712;29;20213;-85
2023/11/15 01:23:02;;;;;;;23.73;7.23;;;11.10;16.00;;;;;;4911478;29;20206;-84
2023/11/15 01:25:30;;;;;;;15.87;8.00;;;11.10;15.10;;;;;;4918077;29;20181;-85
2023/11/15 01:27:59;;;;;;;27.73;7.47;;;11.10;13.00;;;;;;4917640;29;20455;-85
2023/11/15 01:30:26;;;;;;;13.50;6.10;;;11.10;11.40;;;;;;4914466;29;20440;-85
2023/11/15 01:32:52;;;;;;;16.70;6.73;;;11.00;9.50;;;;;;4914621;29;20446;-85
2023/11/15 01:35:18;;;;;;;15.37;7.60;;;11.00;10.10;;;;;;4915295;29;20450;-85
2023/11/15 01:37:50;;;;;;;14.33;7.10;;;11.00;12.30;;;;;;4914338;29;20489;-84
2023/11/15 01:40:20;;;;;;;16.63;8.07;;;11.00;15.90;;;;;;4907431;29;20448;-85
2023/11/15 01:42:46;;;;;;;22.57;7.37;;;11.10;17.90;;;;;;4914888;29;20447;-85
2023/11/15 01:45:11;;;;;;;15.43;6.87;;;11.10;19.40;;;;;;4918145;29;20458;-85
2023/11/15 01:47:38;;;;;;;22.47;8.53;;;11.10;22.10;;;;;;4917713;29;20447;-85
2023/11/15 01:50:09;;;;;;;16.43;7.17;;;11.10;24.20;;;;;;4918086;29;20198;-85
2023/11/15 01:52:43;;;;;;;23.27;8.10;;;11.10;23.10;;;;;;4916724;29;20439;-85
2023/11/15 01:55:19;;;;;;;15.90;7.10;;;11.10;22.20;;;;;;4916031;29;20573;-85
2023/11/15 01:57:46;;;;;;;18.43;6.83;;;11.10;21.40;;;;;;4915143;29;20469;-85
2023/11/15 02:00:13;;;;;;;18.93;7.27;;;11.10;19.10;;;;;;4918348;29;20446;-85
2023/11/15 02:02:40;;;;;;;20.97;7.07;;;11.10;18.20;;;;;;4917900;29;20474;-85
2023/11/15 02:05:06;;;;;;;12.40;6.13;;;11.10;15.10;;;;;;4916107;29;20454;-85
2023/11/15 02:07:32;;;;;;;16.47;8.40;;;11.10;13.20;;;;;;4917866;29;20458;-85
2023/11/15 02:09:58;;;;;;;14.03;6.53;;;11.10;11.30;;;;;;4917678;29;20957;-85
2023/11/15 02:12:26;;;;;;;16.30;7.47;;;11.10;9.60;;;;;;4918287;29;20608;-85
2023/11/15 02:14:52;;;;;;;19.63;7.87;;;11.00;7.30;;;;;;4916464;29;20450;-84
2023/11/15 02:17:18;;;;;;;16.83;7.00;;;11.00;8.20;;;;;;4917954;29;20439;-84
2023/11/15 02:19:43;;;;;;;16.00;6.30;;;11.00;7.90;;;;;;4914845;29;20206;-84
2023/11/15 02:22:09;;;;;;;16.80;7.60;;;11.00;7.60;;;;;;4915289;29;20226;-85
2023/11/15 02:24:35;;;;;;;11.37;6.40;;;11.00;9.30;;;;;;4913497;29;20215;-84
2023/11/15 02:27:00;;;;;;;21.93;7.67;;;11.00;10.80;;;;;;4915236;29;20273;-85
2023/11/15 02:29:26;;;;;;;15.97;6.90;;;11.10;9.20;;;;;;4917235;29;20455;-85
2023/11/15 02:31:51;;;;;;;14.30;6.93;;;11.00;6.40;;;;;;4910038;29;20191;-84
2023/11/15 02:34:18;;;;;;;20.13;7.37;;;11.10;1.00;;;;;;4909816;29;20191;-84
2023/11/15 02:36:43;;;;;;;15.50;6.20;;;11.10;1.00;;;;;;4916984;29;20187;-85
2023/11/15 02:39:09;;;;;;;15.83;7.03;;;11.10;1.00;;;;;;4916650;29;20482;-85
2023/11/15 02:41:35;;;;;;;20.10;6.60;;;11.10;1.00;;;;;;4916592;29;20191;-87
2023/11/15 02:44:00;;;;;;;15.10;6.53;;;11.10;1.00;;;;;;4918327;29;20217;-85
2023/11/15 02:46:26;;;;;;;17.57;5.90;;;11.10;1.00;;;;;;4915846;29;20456;-84
2023/11/15 02:48:52;;;;;;;16.97;5.90;;;11.10;1.00;;;;;;4906819;29;20211;-85
2023/11/15 02:51:18;;;;;;;13.53;5.50;;;11.10;1.00;;;;;;4919338;29;20587;-85
2023/11/15 02:53:43;;;;;;;15.80;6.00;;;11.10;1.00;;;;;;4920661;29;20457;-85
2023/11/15 02:56:09;;;;;;;15.93;6.50;;;11.10;1.00;;;;;;4920365;29;20194;-85
2023/11/15 02:58:35;;;;;;;10.07;5.27;;;11.20;1.00;;;;;;4919839;29;20245;-85
2023/11/15 03:01:06;;;;;;;9.40;5.67;;;11.20;1.00;;;;;;4918017;29;20529;-84
2023/11/15 03:03:35;;;;;;;18.33;5.90;;;11.20;1.00;;;;;;4912361;29;20606;-86
2023/11/15 03:06:02;;;;;;;19.73;5.67;;;11.20;1.00;;;;;;4919626;29;20451;-85
2023/11/15 03:08:27;;;;;;;17.50;5.80;;;11.20;1.00;;;;;;4920425;29;20478;-85
2023/11/15 03:10:53;;;;;;;16.03;5.20;;;11.10;1.00;;;;;;4921028;29;20445;-85
2023/11/15 03:13:18;;;;;;;21.43;7.43;;;11.10;1.00;;;;;;4920042;29;20187;-85
2023/11/15 03:15:45;;;;;;;9.90;5.07;;;11.10;1.00;;;;;;4917022;29;20191;-84
2023/11/15 03:18:11;;;;;;;16.40;5.43;;;11.10;1.00;;;;;;4913953;29;20269;-85
2023/11/15 03:20:36;;;;;;;10.53;4.83;;;11.00;1.00;;;;;;4915349;29;20886;-85
2023/11/15 03:23:01;;;;;;;23.20;5.87;;;11.00;1.00;;;;;;4915915;29;20222;-85
2023/11/15 03:25:28;;;;;;;16.00;5.60;;;11.00;1.00;;;;;;4914715;29;20183;-85
2023/11/15 03:27:55;;;;;;;16.07;4.80;;;11.00;1.00;;;;;;4914846;29;20233;-85
2023/11/15 03:30:20;;;;;;;21.23;5.70;;;11.00;1.00;;;;;;4918981;29;20439;-85
2023/11/15 03:32:46;;;;;;;11.80;4.90;;;11.00;1.00;;;;;;4920277;29;20929;-85
2023/11/15 03:35:12;;;;;;;12.67;4.67;;;11.00;1.00;;;;;;4918150;29;20286;-85
2023/11/15 03:37:38;;;;;;;10.67;4.80;;;11.00;1.00;;;;;;4925016;29;20251;-85
2023/11/15 03:40:07;;;;;;;16.00;5.13;;;11.00;1.00;;;;;;4924540;29;20187;-86
2023/11/15 03:42:34;;;;;;;12.97;4.30;;;11.00;1.00;;;;;;4923932;29;20254;-85
2023/11/15 03:45:00;;;;;;;12.00;4.60;;;11.00;1.00;;;;;;4925518;29;20975;-85
2023/11/15 03:47:25;;;;;;;16.77;5.13;;;11.00;1.00;;;;;;4925093;29;20434;-84
2023/11/15 03:49:51;;;;;;;9.57;5.13;;;11.10;1.00;;;;;;4921431;29;20692;-85
2023/11/15 03:52:17;;;;;;;19.97;4.97;;;11.00;1.00;;;;;;4922345;29;20198;-85
2023/11/15 03:54:42;;;;;;;17.53;5.10;;;11.10;1.00;;;;;;4925217;29;20542;-85
2023/11/15 03:57:10;;;;;;;13.20;4.83;;;11.10;1.00;;;;;;4921428;29;20285;-85
2023/11/15 03:59:36;;;;;;;20.70;6.37;;;11.10;1.00;;;;;;4925271;29;20584;-85
2023/11/15 04:02:01;;;;;;;17.10;5.27;;;11.10;1.00;;;;;;4925738;29;20443;-85
2023/11/15 04:04:27;;;;;;;18.63;5.47;;;11.10;1.00;;;;;;4923077;29;20232;-85
2023/11/15 04:06:52;;;;;;;23.20;5.30;;;11.10;1.00;;;;;;4924531;29;20213;-85
2023/11/15 04:09:18;;;;;;;9.90;4.73;;;11.10;1.00;;;;;;4916760;29;20249;-84
2023/11/15 04:11:44;;;;;;;11.20;4.47;;;11.10;1.00;;;;;;4920339;29;20187;-85
2023/11/15 04:14:09;;;;;;;11.20;4.50;;;11.10;1.00;;;;;;4920838;29;20206;-85
2023/11/15 04:16:35;;;;;;;22.93;4.90;;;11.10;1.00;;;;;;4918971;29;20969;-85
2023/11/15 04:19:00;;;;;;;9.77;5.27;;;11.10;1.00;;;;;;4919050;29;20217;-84
2023/11/15 04:21:26;;;;;;;14.77;6.00;;;11.10;1.00;;;;;;4918257;29;20210;-85
2023/11/15 04:23:53;;;;;;;14.87;4.60;;;11.20;1.00;;;;;;4919147;29;20593;-85
2023/11/15 04:26:21;;;;;;;24.97;5.13;;;11.20;1.00;;;;;;4915748;29;20231;-85
2023/11/15 04:28:47;;;;;;;15.47;4.63;;;11.10;1.00;;;;;;4918522;29;20465;-84
2023/11/15 04:31:12;;;;;;;22.83;6.30;;;11.20;1.00;;;;;;4919512;29;20534;-85
2023/11/15 04:33:38;;;;;;;20.53;5.20;;;11.10;1.00;;;;;;4918148;29;20191;-83
2023/11/15 04:36:04;;;;;;;15.70;5.13;;;11.20;1.00;;;;;;4919186;29;20233;-85
2023/11/15 04:38:29;;;;;;;21.97;4.70;;;11.20;1.00;;;;;;4916124;29;20215;-85
2023/11/15 04:40:56;;;;;;;11.93;4.40;;;11.10;1.00;;;;;;4918431;29;20963;-85
2023/11/15 04:43:23;;;;;;;17.57;4.83;;;11.20;1.00;;;;;;4912063;29;20202;-84
2023/11/15 04:45:50;;;;;;;11.87;4.20;;;11.20;1.00;;;;;;4918759;29;20446;-85
2023/11/15 04:48:16;;;;;;;20.10;3.90;;;11.20;1.00;;;;;;4917786;29;20462;-85
2023/11/15 04:50:42;;;;;;;16.87;4.07;;;11.10;1.00;;;;;;4918536;29;20462;-85
2023/11/15 04:53:08;;;;;;;14.83;4.17;;;11.20;1.00;;;;;;4917927;29;20197;-84
2023/11/15 04:55:34;;;;;;;13.10;4.83;;;11.10;1.00;;;;;;4914850;29;20188;-85
2023/11/15 04:58:00;;;;;;;18.83;4.60;;;11.10;1.00;;;;;;4908436;29;20459;-84
2023/11/15 05:00:26;;;;;;;17.43;4.50;;;11.10;1.00;;;;;;4918058;29;20525;-84
2023/11/15 05:02:51;;;;;;;17.40;5.67;;;11.10;1.00;;;;;;4919164;29;20202;-84
2023/11/15 05:05:17;;;;;;;12.70;4.00;;;11.10;1.00;;;;;;4918130;29;20563;-85
2023/11/15 05:07:43;;;;;;;16.33;3.90;;;11.00;1.00;;;;;;4915591;29;20703;-85
2023/11/15 05:10:09;;;;;;;11.80;4.23;;;11.00;1.00;;;;;;4917303;29;20458;-85
2023/11/15 05:12:36;;;;;;;14.93;3.97;;;10.90;1.00;;;;;;4906811;29;20198;-85
2023/11/15 05:15:01;;;;;;;17.77;5.13;;;10.90;1.00;;;;;;4918278;29;20459;-84
2023/11/15 05:17:27;;;;;;;14.87;4.30;;;10.80;1.00;;;;;;4919051;29;20561;-85
2023/11/15 05:19:52;;;;;;;9.83;3.30;;;10.80;1.00;;;;;;4918314;29;20206;-84
2023/11/15 05:22:18;;;;;;;14.57;4.20;;;10.80;1.00;;;;;;4917229;29;20205;-85
2023/11/15 05:24:43;;;;;;;14.53;4.47;;;10.90;1.00;;;;;;4918270;29;20700;-85
2023/11/15 05:27:09;;;;;;;20.90;6.77;;;10.90;1.00;;;;;;4913870;29;20238;-84
2023/11/15 05:29:35;;;;;;;14.00;4.50;;;10.90;1.00;;;;;;4908974;29;20280;-85
2023/11/15 05:32:00;;;;;;;15.23;5.00;;;10.80;1.00;;;;;;4917863;29;20482;-84
2023/11/15 05:34:27;;;;;;;16.70;5.30;;;10.80;1.00;;;;;;4917319;29;20724;-85
2023/11/15 05:36:53;;;;;;;22.87;5.80;;;10.80;1.00;;;;;;4911044;29;20196;-83
2023/11/15 05:39:19;;;;;;;16.30;5.07;;;10.90;1.00;;;;;;4918140;29;20542;-85
2023/11/15 05:41:45;;;;;;;14.30;5.50;;;10.80;1.00;;;;;;4916612;29;20462;-84
2023/11/15 05:44:10;;;;;;;19.17;4.87;;;10.80;1.00;;;;;;4916700;29;20471;-84
2023/11/15 05:46:36;;;;;;;14.13;6.00;;;10.80;1.00;;;;;;4918637;29;20187;-85
2023/11/15 05:49:02;;;;;;;19.93;4.83;;;10.80;1.00;;;;;;4923329;29;20210;-85
2023/11/15 05:51:27;;;;;;;24.37;5.90;;;10.80;1.00;;;;;;4924207;29;20689;-86
2023/11/15 05:53:53;;;;;;;27.70;5.80;;;10.80;1.00;;;;;;4923320;29;20265;-84
2023/11/15 05:56:20;;;;;;;16.83;5.07;;;10.90;1.00;;;;;;4923998;29;20218;-85
2023/11/15 05:58:45;;;;;;;18.43;5.40;;;10.90;1.00;;;;;;4924892;29;20266;-85
2023/11/15 06:01:12;;;;;;;15.20;5.63;;;10.80;1.00;;;;;;4913519;29;20475;-85
2023/11/15 06:03:38;;;;;;;19.03;6.20;;;10.80;1.00;;;;;;4918329;29;20207;-85
2023/11/15 06:06:04;;;;;;;20.50;5.93;;;10.90;1.00;;;;;;4919510;29;20960;-84
2023/11/15 06:08:29;;;;;;;16.77;5.40;;;10.90;1.00;;;;;;4919327;29;20296;-85
2023/11/15 06:10:55;;;;;;;14.40;4.70;;;10.90;1.00;;;;;;4919115;29;20558;-83
2023/11/15 06:13:20;;;;;;;21.23;5.70;;;10.90;1.00;;;;;;4918764;29;20195;-85
2023/11/15 06:15:46;;;;;;;13.00;5.07;;;10.90;1.00;;;;;;4915122;29;20183;-84
2023/11/15 06:18:12;;;;;;;15.77;5.93;;;10.90;1.00;;;;;;4916019;29;20218;-84
2023/11/15 06:20:40;;;;;;;14.90;5.53;;;11.00;1.00;;;;;;4918562;29;20427;-84
2023/11/15 06:23:06;;;;;;;17.17;4.90;;;11.00;1.00;;;;;;4918350;29;20202;-84
2023/11/15 06:25:32;;;;;;;16.43;6.23;;;11.00;1.00;;;;;;4916971;29;20502;-84
2023/11/15 06:28:05;;;;;;;13.40;5.00;;;11.00;1.00;;;;;;4910712;29;20681;-85
2023/11/15 06:30:30;;;;;;;20.50;5.00;;;11.00;1.00;;;;;;4919812;29;20442;-86
2023/11/15 06:32:56;;;;;;;19.30;6.17;;;11.00;1.00;;;;;;4921743;29;20948;-86
2023/11/15 06:35:21;;;;;;;18.30;5.13;;;11.00;1.00;;;;;;4912136;29;20719;-84
2023/11/15 06:37:48;;;;;;;19.67;6.13;;;11.00;1.00;;;;;;4920441;29;20210;-84
2023/11/15 06:40:15;;;;;;;27.03;5.87;;;11.10;1.00;;;;;;4919026;29;20187;-87
2023/11/15 06:42:42;;;;;;;26.53;6.00;;;11.00;1.00;;;;;;4920443;29;20487;-84
2023/11/15 06:45:08;;;;;;;19.93;6.00;;;11.00;1.00;;;;;;4907448;29;20533;-84
2023/11/15 06:47:35;;;;;;;14.30;5.10;;;11.00;1.00;;;;;;4915960;29;21165;-83
2023/11/15 06:50:04;;;;;;;17.57;5.53;;;11.00;1.00;;;;;;4916386;29;20438;-86
2023/11/15 06:52:32;;;;;;;15.80;5.17;;;11.00;1.00;;;;;;4914353;29;20446;-84
2023/11/15 06:54:58;;;;;;;27.13;7.17;;;11.10;1.00;;;;;;4913777;29;20447;-84
2023/11/15 06:57:24;;;;;;;24.20;6.90;;;11.00;1.00;;;;;;4910194;29;20483;-85
2023/11/15 06:59:53;;;;;;;18.97;6.13;;;11.00;1.00;;;;;;4915743;29;20442;-84
2023/11/15 07:02:18;;;;;;;15.30;5.63;;;11.00;1.00;;;;;;4919729;29;20914;-86
2023/11/15 07:04:44;;;;;;;20.37;7.60;;;11.10;1.00;;;;;;4912554;29;20462;-85
2023/11/15 07:07:12;;;;;;;16.93;7.03;;;11.10;1.00;;;;;;4919312;29;20257;-84
2023/11/15 07:09:41;;;;;;;17.93;5.13;;;11.10;1.00;;;;;;4920346;29;20225;-84
2023/11/15 07:12:13;;;;;;;30.20;6.40;;;11.20;1.00;;;;;;4935933;29;20521;-84
2023/11/15 07:14:40;;;;;;;17.77;6.20;;;11.20;1.00;;;;;;4921270;29;20826;-84
2023/11/15 07:17:07;;;;;;;16.83;4.63;;;11.20;1.00;;;;;;4913340;29;20471;-84
2023/11/15 07:19:33;;;;;;;23.83;5.77;;;11.20;1.00;;;;;;4910323;29;20478;-85
2023/11/15 07:21:59;;;;;;;13.77;5.60;;;11.20;1.00;;;;;;4913135;29;20451;-84
2023/11/15 07:24:28;;;;;;;20.07;5.83;;;11.20;1.00;;;;;;4918146;29;20214;-84
2023/11/15 07:26:53;;;;;;;14.33;4.87;;;11.20;1.00;;;;;;4916300;29;20189;-83
2023/11/15 07:29:20;;;;;;;15.17;5.23;;;11.20;1.00;;;;;;4923453;29;20525;-84
2023/11/15 07:31:52;;;;;;;14.87;5.37;;;11.20;1.00;;;;;;4917288;29;20199;-84
2023/11/15 07:34:24;;;;;;;17.13;5.53;;;11.30;1.00;;;;;;4912940;29;20451;-84
2023/11/15 07:36:51;;;;;;;12.73;5.50;;;11.30;1.00;;;;;;4923655;29;20486;-84
2023/11/15 07:39:18;;;;;;;14.77;4.93;;;11.30;1.00;;;;;;4922432;29;20553;-84
2023/11/15 07:41:44;;;;;;;14.80;5.40;;;11.40;1.00;;;;;;4926185;29;20454;-82
2023/11/15 07:44:13;;;;;;;15.27;5.40;;;11.50;1.00;;;;;;4919925;29;20477;-85
2023/11/15 07:46:41;;;;;;;11.20;4.77;;;11.60;1.00;;;;;;4919264;29;20559;-84
2023/11/15 07:49:07;;;;;;;14.97;5.27;;;11.60;1.00;;;;;;4918675;29;21089;-84
2023/11/15 07:51:33;;;;;;;14.53;4.60;;;11.60;1.00;;;;;;4909072;29;20526;-84
2023/11/15 07:53:59;;;;;;;15.83;3.93;;;11.60;1.00;;;;;;4918521;29;20972;-86
2023/11/15 07:56:24;;;;;;;18.47;5.43;;;11.60;1.00;;;;;;4917043;29;20534;-84
2023/11/15 07:58:50;;;;;;;18.13;5.07;;;11.60;1.00;;;;;;4921705;29;20443;-85
2023/11/15 08:01:16;;;;;;;20.43;4.53;;;11.60;1.00;;;;;;4922108;29;20186;-83
2023/11/15 08:03:42;;;;;;;16.53;4.60;;;11.60;1.00;;;;;;4919190;29;20214;-84
2023/11/15 08:06:10;;;;;;;9.87;4.50;;;11.70;1.00;;;;;;4921374;29;20474;-85
2023/11/15 08:08:38;;;;;;;9.57;4.43;;;11.70;1.00;;;;;;4917960;29;20222;-84
2023/11/15 08:11:04;;;;;;;13.13;5.27;;;11.70;1.00;;;;;;4921233;29;20438;-85
2023/11/15 08:13:30;;;;;;;24.10;7.20;;;11.70;1.00;;;;;;4918146;29;20431;-84
2023/11/15 08:15:56;;;;;;;14.70;5.00;;;11.70;1.00;;;;;;4921307;29;20418;-84
2023/11/15 08:18:22;;;;;;;17.27;5.13;;;11.70;1.00;;;;;;4919942;29;20450;-85
2023/11/15 08:20:54;;;;;;;14.77;4.70;;;11.80;1.00;;;;;;4918290;29;20194;-85
2023/11/15 08:23:20;;;;;;;16.87;5.77;;;11.80;1.00;;;;;;4919405;29;20972;-84
2023/11/15 08:25:50;;;;;;;16.47;4.67;;;11.90;1.00;;;;;;4920683;29;20423;-85
2023/11/15 08:28:17;;;;;;;17.50;4.40;;;12.10;1.00;;;;;;4921688;29;20257;-84
2023/11/15 08:30:45;;;;;;;9.40;3.43;;;12.30;1.00;;;;;;4920195;29;20431;-85
2023/11/15 08:33:15;;;;;;;18.63;4.40;;;12.60;99.90;;;;;;4922072;29;20421;-84
2023/11/15 08:35:41;;;;;;;21.40;4.83;;;12.70;99.90;;;;;;4916888;29;20457;-87
2023/11/15 08:38:07;;;;;;;16.70;4.70;;;12.60;99.90;;;;;;4925993;29;20498;-85
2023/11/15 08:40:33;;;;;;;17.10;4.20;;;12.60;99.90;;;;;;4924257;29;20179;-87
2023/11/15 08:42:59;;;;;;;18.57;4.30;;;12.60;88.40;;;;;;4920850;29;20424;-87
2023/11/15 08:45:25;;;;;;;13.57;3.43;;;12.70;2.70;;;;;;4935177;29;20462;-85
2023/11/15 08:47:51;;;;;;;15.30;4.10;;;12.90;1.00;;;;;;4925507;29;20580;-86
2023/11/15 08:50:18;;;;;;;13.83;3.10;;;14.00;1.00;;;;;;4919000;29;20442;-86
2023/11/15 08:52:44;;;;;;;15.40;4.07;;;14.30;1.00;;;;;;4918759;29;20546;-86
2023/11/15 08:55:11;;;;;;;16.40;3.60;;;14.50;99.90;;;;;;4919947;29;20487;-86
2023/11/15 08:57:40;;;;;;;14.33;3.50;;;14.40;1.00;;;;;;4916362;29;20455;-85
2023/11/15 09:00:16;;;;;;;14.27;3.23;;;14.40;1.00;;;;;;4917471;29;20482;-85
2023/11/15 09:02:44;;;;;;;17.80;7.50;;;14.70;1.00;;;;;;4917767;29;20450;-85
2023/11/15 09:05:11;;;;;;;10.03;3.23;;;14.80;99.90;;;;;;4920014;29;20482;-86
2023/11/15 09:07:37;;;;;;;10.50;3.80;;;15.20;99.90;;;;;;4919776;29;20465;-86
2023/11/15 09:10:04;;;;;;;12.43;3.80;;;17.00;99.90;;;;;;4915441;29;20462;-86
2023/11/15 09:12:31;;;;;;;13.80;5.60;;;17.10;1.00;;;;;;4919321;29;20215;-85
2023/11/15 09:14:58;;;;;;;11.73;4.00;;;16.60;1.00;;;;;;4919417;29;20441;-86
2023/11/15 09:17:24;;;;;;;19.20;6.60;;;16.10;1.00;;;;;;4920566;29;21008;-87
2023/11/15 09:19:51;;;;;;;10.30;3.57;;;15.60;51.20;;;;;;4919740;29;20453;-84
2023/11/15 09:22:18;;;;;;;7.50;3.83;;;15.20;99.90;;;;;;4916665;29;20447;-84
2023/11/15 09:24:43;;;;;;;13.20;3.63;;;15.00;99.90;;;;;;4924342;29;20465;-85
2023/11/15 09:27:10;;;;;;;16.27;4.40;;;14.90;1.00;;;;;;4905762;29;20438;-85
2023/11/15 09:29:37;;;;;;;11.13;3.03;;;14.90;1.00;;;;;;4917444;29;20213;-85
2023/11/15 09:32:03;;;;;;;18.13;3.27;;;14.80;1.00;;;;;;4916130;29;20442;-83
2023/11/15 09:34:29;;;;;;;9.17;4.40;;;14.50;1.00;;;;;;4915692;29;20446;-84
2023/11/15 09:36:54;;;;;;;14.73;3.80;;;14.30;1.00;;;;;;4914815;29;20674;-85
2023/11/15 09:39:20;;;;;;;8.30;3.43;;;14.20;1.40;;;;;;4916654;29;20213;-87
2023/11/15 09:41:55;;;;;;;12.10;3.73;;;14.00;99.90;;;;;;4917698;29;20194;-86
2023/11/15 09:44:24;;;;;;;9.83;3.53;;;14.10;99.90;;;;;;4917597;29;20221;-83
2023/11/15 09:46:57;;;;;;;8.60;4.10;;;14.00;99.90;;;;;;4915620;29;20434;-85
2023/11/15 09:49:26;;;;;;;14.53;4.40;;;14.10;1.00;;;;;;4913403;29;20917;-84
2023/11/15 09:51:52;;;;;;;10.07;3.17;;;14.40;11.70;;;;;;4911258;29;20465;-83
2023/11/15 09:54:20;;;;;;;16.27;4.50;;;14.40;1.00;;;;;;4912558;29;20447;-85
2023/11/15 09:56:46;;;;;;;17.70;3.73;;;14.60;1.00;;;;;;4917113;29;20466;-85
2023/11/15 09:59:12;;;;;;;14.30;3.03;;;14.80;1.00;;;;;;4916735;29;20471;-86
2023/11/15 10:01:44;;;;;;;14.20;4.17;;;14.90;1.00;;;;;;4916016;29;20446;-83
2023/11/15 10:04:30;;;;;;;13.33;3.43;;;14.90;99.90;;;;;;4909189;29;20923;-83
2023/11/15 10:06:55;;;;;;;9.20;3.90;;;15.00;99.90;;;;;;4914985;29;20427;-84
2023/11/15 10:09:38;;;;;;;12.10;4.10;;;15.30;99.90;;;;;;4915902;29;20519;-85
2023/11/15 10:12:08;;;;;;;13.33;3.90;;;15.40;99.90;;;;;;4916304;29;20187;-85
2023/11/15 10:14:37;;;;;;;6.63;3.50;;;15.30;99.90;;;;;;4915690;29;20454;-85
2023/11/15 10:17:03;;;;;;;11.63;4.00;;;15.20;99.90;;;;;;4918029;29;20443;-84
2023/11/15 10:19:29;;;;;;;12.90;4.20;;;15.10;99.90;;;;;;4917208;29;20462;-85
2023/11/15 10:22:02;;;;;;;14.60;4.00;;;15.20;99.90;;;;;;4914249;29;20269;-84
2023/11/15 10:24:28;;;;;;;12.93;4.13;;;15.20;99.90;;;;;;4911785;29;20537;-84
2023/11/15 10:27:07;;;;;;;9.33;3.60;;;15.20;99.90;;;;;;4916078;29;20876;-86
2023/11/15 10:29:34;;;;;;;15.63;4.60;;;15.20;99.90;;;;;;4906874;29;20594;-85
2023/11/15 10:32:00;;;;;;;13.30;3.63;;;15.30;99.90;;;;;;4932599;29;20435;-85
2023/11/15 10:34:29;;;;;;;12.33;3.90;;;15.40;99.90;;;;;;4918683;29;20457;-84
2023/11/15 10:37:07;;;;;;;14.77;3.93;;;15.20;99.90;;;;;;4919228;29;20190;-85
2023/11/15 10:39:40;;;;;;;9.43;3.50;;;15.30;99.90;;;;;;4913068;29;20888;-85
2023/11/15 10:42:08;;;;;;;14.93;3.63;;;15.70;99.90;;;;;;4931558;29;20463;-86
2023/11/15 10:44:37;;;;;;;9.90;2.87;;;15.80;93.30;;;;;;4919108;29;20455;-83
2023/11/15 10:47:05;;;;;;;10.90;3.57;;;15.90;23.20;;;;;;4918901;29;20427;-85
2023/11/15 10:49:38;;;;;;;13.23;3.80;;;16.00;1.00;;;;;;4914961;29;20448;-85
2023/11/15 10:52:05;;;;;;;11.30;3.07;;;16.00;1.00;;;;;;4917741;29;20422;-86
2023/11/15 10:54:33;;;;;;;7.57;3.03;;;15.70;1.00;;;;;;4917927;29;20457;-84
2023/11/15 10:57:00;;;;;;;10.23;3.50;;;15.70;1.00;;;;;;4909560;29;20456;-85
2023/11/15 10:59:27;;;;;;;8.93;2.83;;;15.80;13.50;;;;;;4918488;29;20442;-85
2023/11/15 11:01:55;;;;;;;8.13;3.00;;;16.20;1.00;;;;;;4917532;29;21057;-86
2023/11/15 11:04:22;;;;;;;12.17;3.10;;;16.50;1.00;;;;;;4913959;29;20463;-83
2023/11/15 11:06:58;;;;;;;11.00;3.13;;;17.30;1.00;;;;;;4914937;29;20925;-87
2023/11/15 11:09:33;;;;;;;10.60;3.77;;;17.70;1.00;;;;;;4917300;29;21019;-86
2023/11/15 11:12:03;;;;;;;12.50;3.43;;;17.50;1.00;;;;;;4916164;29;20925;-85
2023/11/15 11:14:30;;;;;;;10.83;3.33;;;17.00;1.00;;;;;;4912589;29;20446;-85
2023/11/15 11:16:57;;;;;;;10.87;3.40;;;16.50;1.00;;;;;;4916927;29;20453;-86
2023/11/15 11:19:25;;;;;;;17.90;3.53;;;16.00;1.00;;;;;;4918398;29;20443;-84
2023/11/15 11:24:32;;;;;;;13.10;4.90;;;15.10;1.00;;;;;;4917384;29;20828;-87
2023/11/15 11:27:24;;;;;;;7.30;2.63;;;14.80;1.00;;;;;;4919685;29;20430;-86
2023/11/15 11:29:49;;;;;;;7.60;3.00;;;15.00;99.90;;;;;;4912988;29;20443;-85
2023/11/15 11:32:28;;;;;;;13.13;3.53;;;15.10;56.80;;;;;;4915051;29;20446;-86
2023/11/15 11:35:00;;;;;;;16.53;3.83;;;15.20;41.50;;;;;;4913029;29;20198;-86
2023/11/15 11:37:46;;;;;;;10.43;3.53;;;15.20;61.60;;;;;;4918774;29;20437;-84
2023/11/15 11:40:13;;;;;;;12.33;3.40;;;15.80;2.10;;;;;;4917453;29;20470;-85
2023/11/15 11:42:40;;;;;;;12.73;3.30;;;16.30;1.00;;;;;;4914262;29;20438;-86
2023/11/15 11:45:07;;;;;;;12.10;3.73;;;17.10;1.00;;;;;;4914139;29;20530;-86
2023/11/15 11:47:46;;;;;;;15.77;3.37;;;17.20;1.00;;;;;;4912479;29;20470;-84
2023/11/15 11:50:16;;;;;;;12.87;2.77;;;18.20;1.00;;;;;;4928312;29;20477;-86
2023/11/15 11:52:42;;;;;;;10.37;2.77;;;19.20;99.90;;;;;;4914533;29;20526;-87
2023/11/15 11:55:08;;;;;;;8.40;2.50;;;18.80;99.90;;;;;;4917457;29;20529;-86
2023/11/15 11:57:34;;;;;;;8.33;3.53;;;18.00;99.90;;;;;;4914456;29;20278;-86
2023/11/15 12:00:11;;;;;;;9.53;3.27;;;17.30;99.90;;;;;;4917507;29;20905;-86
2023/11/15 12:02:37;;;;;;;10.53;3.30;;;16.60;99.90;;;;;;4916719;29;20277;-84
2023/11/15 12:05:06;;;;;;;11.97;3.03;;;16.00;99.90;;;;;;4915285;29;20533;-85
2023/11/15 12:07:32;;;;;;;11.50;3.23;;;15.80;1.00;;;;;;4918631;29;20457;-86
2023/11/15 12:10:05;;;;;;;17.10;3.13;;;16.20;1.00;;;;;;4917477;29;20786;-86
2023/11/15 12:12:30;;;;;;;8.70;2.40;;;16.90;99.90;;;;;;4913293;29;20454;-85
2023/11/15 12:14:59;;;;;;;13.83;3.20;;;17.70;99.90;;;;;;4916226;29;20530;-85
2023/11/15 12:17:41;;;;;;;5.00;2.00;;;18.60;99.90;;;;;;4916292;29;20450;-86
2023/11/15 12:20:10;;;;;;;10.43;2.80;;;19.40;99.90;;;;;;4916749;29;20935;-86
2023/11/15 12:22:44;;;;;;;12.87;2.93;;;19.90;99.90;;;;;;4918910;29;20444;-85
2023/11/15 12:25:16;;;;;;;13.17;3.00;;;20.30;99.90;;;;;;4918921;29;20465;-87
2023/11/15 12:27:42;;;;;;;10.40;2.40;;;20.70;99.90;;;;;;4917262;29;20493;-86
2023/11/15 12:30:11;;;;;;;7.80;2.70;;;20.10;99.90;;;;;;4909586;29;21128;-86
2023/11/15 12:32:41;;;;;;;6.73;2.70;;;20.30;99.90;;;;;;4918375;29;20437;-84
2023/11/15 12:35:11;;;;;;;8.37;2.30;;;20.10;99.90;;;;;;4918846;29;20449;-86
2023/11/15 12:37:37;;;;;;;7.50;2.20;;;20.10;99.90;;;;;;4916515;29;20450;-86
2023/11/15 12:40:20;;;;;;;5.60;2.40;;;20.50;99.90;;;;;;4909855;29;20444;-87
2023/11/15 12:42:48;;;;;;;14.43;3.60;;;20.60;99.90;;;;;;4915722;29;20434;-85
2023/11/15 12:45:32;;;;;;;7.60;2.00;;;21.00;99.90;;;;;;4910375;29;20917;-86
2023/11/15 12:48:04;;;;;;;7.80;2.60;;;21.00;99.90;;;;;;4928759;29;20988;-82